Portada
METAR-TAF:

METAR-TAF

Aeroports :

Aeroport de Palma - Son Sant Joan

Palma, Espanya

latitud: 39-33N, longitud: 002-44E, altitud: 4 m

Observació

L'informe es va fer fa 37 minuts, a les 15:00 UTC
Vent 8 kt del Est/Nord-Est, variant entre Nord-Est i Est
Temperatura 14°C
Humitat 72%
Pressió 1030 hPa
Visibilitat 10 km o més
Escasses núvols a una alçada de 2000 ft
Núvols disperses a una alçada de 3000 ft

METAR: LEPA 181500Z 07008KT 040V100 9999 FEW020 SCT030 14/09 Q1030 NOSIG

Hora: 16:37 (15:37 UTC)

Pronòstic

L'informe es va fer fa 4 hores i 37 minuts, a les 11:00 UTC
Pronòstic vàlid del 18 a les 12 UTC al 19 a les 12 UTC
Vent 10 kt del Est/Nord-Est
Visibilitat 10 km o més
Escasses núvols a una alçada de 2000 ft
Evolucionant progressivament
l' 18 a les 12 UTC al 18 a les 14 UTC
Vent 4 kt del Est/Nord-Est

TAF: LEPA 181100Z 1812/1912 06010KT 9999 FEW020 TX16/1813Z TN07/1906Z BECMG 1812/1814 06004KT

Observacions i pronòstics meteorològics de més de 4000 aeroports (METAR i TAF).

Les estacions disponibles són els punts grocs i vermells al mapa.

Posi el ratolí al punt desitjat per veure el nom de l'estació.

Feu clic per veure les observacions i els pronòstics meteorològics.

Per canviar el mapa: feu clic els botons verds amb una creu de color negre per apropar; al botó verd amb un guió per allunyar la imatge; o en les fletxes verdes per a mapes adjacents.


METAR-TAF: